createdAt,value
2022-09-06T00:05:54.061Z,100554.78
2022-09-06T00:15:56.018Z,100568.25
2022-09-06T00:26:06.247Z,100560.53
2022-09-06T00:36:08.524Z,100545.41
2022-09-06T00:46:12.053Z,100561.34
2022-09-06T00:56:14.067Z,100553.59
2022-09-06T01:06:18.732Z,100572.09
2022-09-06T01:16:30.822Z,100576.84
2022-09-06T01:26:32.449Z,100586.16
2022-09-06T01:36:54.326Z,100573.28
2022-09-06T01:47:25.358Z,100586.97
2022-09-06T01:57:45.520Z,100580.53
2022-09-06T02:07:49.528Z,100589.47
2022-09-06T02:17:56.834Z,100596.97
2022-09-06T02:27:58.550Z,100601.59
2022-09-06T02:38:00.296Z,100598.00
2022-09-06T02:48:02.042Z,100598.09
2022-09-06T02:58:05.628Z,100597.97
2022-09-06T03:08:07.367Z,100606.66
2022-09-06T03:18:09.392Z,100603.34
2022-09-06T03:28:11.074Z,100614.00
2022-09-06T03:38:12.762Z,100625.91
2022-09-06T03:48:14.851Z,100636.00
2022-09-06T03:58:17.548Z,100637.03
2022-09-06T04:08:19.198Z,100644.63
2022-09-06T04:18:21.316Z,100654.69
2022-09-06T04:28:23.445Z,100654.69
2022-09-06T04:38:25.879Z,100652.75
2022-09-06T04:49:00.579Z,100647.56
2022-09-06T04:59:03.126Z,100652.44
2022-09-06T05:09:06.974Z,100650.22
2022-09-06T05:19:08.828Z,100659.22
2022-09-06T05:29:10.649Z,100654.13
2022-09-06T05:39:12.354Z,100646.56
2022-09-06T05:49:14.050Z,100650.44
2022-09-06T05:59:15.778Z,100655.28
2022-09-06T06:09:17.525Z,100665.78
2022-09-06T06:19:19.215Z,100660.22
2022-09-06T06:29:31.571Z,100666.78
2022-09-06T06:39:36.240Z,100680.34
2022-09-06T06:49:37.950Z,100680.13
2022-09-06T07:00:18.487Z,100675.50
2022-09-06T07:10:35.785Z,100680.88
2022-09-06T07:41:30.758Z,100666.78
2022-09-06T07:51:32.656Z,100669.94
2022-09-06T08:01:42.425Z,100670.66
2022-09-06T08:11:51.479Z,100674.47
2022-09-06T08:21:56.775Z,100670.66
2022-09-06T08:31:59.325Z,100671.59
2022-09-06T08:42:05.468Z,100661.34
2022-09-06T08:52:26.216Z,100637.38
2022-09-06T09:02:29.079Z,100614.41
2022-09-06T09:24:47.254Z,100603.56
2022-09-06T09:34:50.297Z,100615.13
2022-09-06T09:44:51.974Z,100611.81
2022-09-06T09:55:51.364Z,100608.69
2022-09-06T10:06:03.116Z,100600.03
2022-09-06T10:17:40.343Z,100590.66
2022-09-06T10:38:24.756Z,100582.41
2022-09-06T11:55:12.363Z,100585.72
2022-09-06T12:05:30.811Z,100576.78
2022-09-06T12:15:44.860Z,100558.06
2022-09-06T12:25:52.735Z,100554.16
2022-09-06T12:36:37.480Z,100555.81
2022-09-06T12:46:45.188Z,100547.19
2022-09-06T12:56:52.823Z,100537.28
2022-09-06T13:06:56.477Z,100540.66
2022-09-06T13:17:05.443Z,100523.09
2022-09-06T13:27:32.495Z,100525.53
2022-09-06T13:48:37.276Z,100525.88
2022-09-06T13:58:54.779Z,100514.59
2022-09-06T14:09:22.514Z,100511.03
2022-09-06T14:19:27.916Z,100504.06
2022-09-06T14:41:05.297Z,100511.97
2022-09-06T14:51:11.005Z,100514.38
2022-09-06T15:01:14.843Z,100508.63
2022-09-06T15:11:29.441Z,100493.09
2022-09-06T15:21:31.738Z,100495.97
2022-09-06T15:31:34.299Z,100502.16
2022-09-06T15:41:43.729Z,100489.25
2022-09-06T15:51:47.328Z,100484.44
2022-09-06T16:01:49.262Z,100484.66
2022-09-06T16:11:51.095Z,100485.69
2022-09-06T16:21:52.821Z,100486.00
2022-09-06T16:32:00.239Z,100491.31
2022-09-06T16:42:01.989Z,100491.97
2022-09-06T16:52:06.523Z,100488.91
2022-09-06T17:02:09.739Z,100494.00
2022-09-06T17:12:13.940Z,100498.69
2022-09-06T17:22:18.804Z,100509.03
2022-09-06T17:32:22.798Z,100511.22
2022-09-06T17:42:24.923Z,100524.69
2022-09-06T17:52:29.594Z,100529.81
2022-09-06T18:02:31.335Z,100530.53
2022-09-06T18:12:36.415Z,100535.84
2022-09-06T18:22:41.165Z,100545.47
2022-09-06T18:32:44.028Z,100552.06
2022-09-06T18:42:45.752Z,100547.22
2022-09-06T18:52:49.156Z,100547.38
2022-09-06T19:02:50.981Z,100542.22
2022-09-06T19:12:53.479Z,100531.41
2022-09-06T19:22:55.119Z,100531.41
2022-09-06T19:32:56.829Z,100538.38
2022-09-06T19:42:58.516Z,100544.50
2022-09-06T19:53:04.163Z,100544.72
2022-09-06T20:03:08.363Z,100539.69
2022-09-06T20:13:10.069Z,100550.34
2022-09-06T20:23:12.025Z,100552.47
2022-09-06T20:33:13.658Z,100542.34
2022-09-06T20:43:15.299Z,100543.41
2022-09-06T20:53:16.919Z,100538.97
2022-09-06T21:03:18.568Z,100538.66
2022-09-06T21:13:20.366Z,100540.75
2022-09-06T21:23:22.303Z,100532.59
2022-09-06T21:33:24.513Z,100542.31
2022-09-06T21:43:26.473Z,100532.94
2022-09-06T21:53:28.063Z,100529.69
2022-09-06T22:03:30.842Z,100526.53
2022-09-06T22:13:32.583Z,100530.69
2022-09-06T22:23:34.484Z,100534.94
2022-09-06T22:33:37.081Z,100534.47
2022-09-06T22:43:39.057Z,100536.81
2022-09-06T22:53:40.710Z,100528.13
2022-09-06T23:03:42.834Z,100536.59
2022-09-06T23:13:45.002Z,100543.16
2022-09-06T23:23:47.373Z,100541.31
2022-09-06T23:33:51.697Z,100527.19
2022-09-06T23:43:53.332Z,100526.66
2022-09-06T23:53:55.207Z,100537.78
